Time;durP1;ratioP1;P1;durP2;ratioP2;P2;SDS_P1;SDS_P2;PMS_P1;PMS_P2;Temp;Humidity;BMP_temperature;BMP_pressure;BME280_temperature;BME280_humidity;BME280_pressure;Samples;Min_cycle;Max_cycle;Signal;HPM_P1;HPM_P2
2021/07/31 00:00:47;;;;;;;5.17;4.17;;;21.60;99.90;;;;;;5033995;28;20176;-77
2021/07/31 00:03:13;;;;;;;8.23;3.60;;;21.50;99.90;;;;;;5033715;28;20201;-77
2021/07/31 00:05:38;;;;;;;6.77;4.30;;;21.50;99.90;;;;;;5050579;28;20268;-77
2021/07/31 00:08:04;;;;;;;6.40;4.03;;;21.50;99.90;;;;;;5034018;28;20188;-77
2021/07/31 00:10:30;;;;;;;7.23;5.13;;;21.50;99.90;;;;;;5052175;28;20222;-77
2021/07/31 00:12:55;;;;;;;5.50;3.80;;;21.50;99.90;;;;;;5050346;28;20215;-78
2021/07/31 00:15:21;;;;;;;4.57;3.30;;;21.50;99.90;;;;;;5051728;28;20223;-78
2021/07/31 00:17:47;;;;;;;10.10;3.20;;;21.50;99.90;;;;;;5051826;28;20644;-77
2021/07/31 00:20:12;;;;;;;3.93;3.47;;;21.50;99.90;;;;;;5052447;28;20171;-79
2021/07/31 00:22:38;;;;;;;4.17;3.53;;;21.50;99.90;;;;;;5055101;28;20195;-77
2021/07/31 00:25:04;;;;;;;3.80;3.33;;;21.40;99.90;;;;;;5054042;28;20196;-77
2021/07/31 00:27:30;;;;;;;4.50;3.87;;;21.40;99.90;;;;;;5056028;28;20172;-76
2021/07/31 00:29:55;;;;;;;5.70;3.57;;;21.40;99.90;;;;;;5057728;28;20495;-77
2021/07/31 00:32:21;;;;;;;4.00;3.30;;;21.40;99.90;;;;;;5057516;28;20644;-78
2021/07/31 00:34:46;;;;;;;3.73;3.27;;;21.30;99.90;;;;;;5040088;28;20680;-77
2021/07/31 00:37:12;;;;;;;4.93;2.77;;;21.30;99.90;;;;;;5056779;28;20176;-77
2021/07/31 00:39:40;;;;;;;5.33;3.70;;;21.30;99.90;;;;;;5056345;28;20556;-79
2021/07/31 00:42:07;;;;;;;4.23;3.10;;;21.30;99.90;;;;;;5054419;28;20172;-77
2021/07/31 00:44:33;;;;;;;5.93;3.80;;;21.30;99.90;;;;;;5058022;28;20457;-78
2021/07/31 00:46:59;;;;;;;4.27;3.10;;;21.30;99.90;;;;;;5066410;28;20410;-77
2021/07/31 00:49:26;;;;;;;4.50;3.10;;;21.20;99.90;;;;;;5068585;28;20394;-78
2021/07/31 00:51:51;;;;;;;4.87;3.43;;;21.20;99.90;;;;;;5056630;28;20417;-78
2021/07/31 00:54:18;;;;;;;3.90;3.10;;;21.20;99.90;;;;;;5057457;28;20500;-78
2021/07/31 00:56:45;;;;;;;4.47;3.47;;;21.10;99.90;;;;;;5057242;28;20195;-79
2021/07/31 00:59:11;;;;;;;5.47;3.07;;;21.10;99.90;;;;;;5058211;28;20433;-79
2021/07/31 01:01:37;;;;;;;4.27;3.47;;;21.10;99.90;;;;;;5057024;28;20464;-78
2021/07/31 01:04:02;;;;;;;3.63;3.20;;;21.10;99.90;;;;;;5057607;28;20438;-78
2021/07/31 01:06:28;;;;;;;4.23;3.27;;;21.10;99.90;;;;;;5057472;28;20465;-78
2021/07/31 01:08:54;;;;;;;5.60;3.70;;;21.00;99.90;;;;;;5057264;28;20176;-78
2021/07/31 01:11:19;;;;;;;3.77;3.37;;;21.00;99.90;;;;;;5056978;28;20190;-78
2021/07/31 01:13:46;;;;;;;5.13;4.07;;;21.00;99.90;;;;;;5056571;28;20717;-78
2021/07/31 01:16:12;;;;;;;3.73;3.00;;;20.90;99.90;;;;;;5057473;28;20172;-78
2021/07/31 01:18:38;;;;;;;5.93;3.20;;;20.90;99.90;;;;;;5056091;28;20419;-78
2021/07/31 01:21:04;;;;;;;5.57;3.20;;;20.90;99.90;;;;;;5057877;28;20256;-78
2021/07/31 01:23:30;;;;;;;4.63;3.60;;;20.90;99.90;;;;;;5057356;28;20951;-78
2021/07/31 01:25:55;;;;;;;3.50;3.20;;;20.90;99.90;;;;;;5039122;28;20520;-78
2021/07/31 01:28:21;;;;;;;6.50;3.50;;;20.90;99.90;;;;;;5055163;28;20230;-78
2021/07/31 01:30:47;;;;;;;3.63;3.20;;;20.90;99.90;;;;;;5056758;28;20179;-78
2021/07/31 01:33:12;;;;;;;4.53;4.13;;;21.00;99.90;;;;;;5056255;28;20630;-78
2021/07/31 01:35:38;;;;;;;5.17;3.37;;;20.90;99.90;;;;;;5057780;28;20222;-78
2021/07/31 01:38:04;;;;;;;5.53;3.40;;;20.90;99.90;;;;;;5058438;28;20175;-78
2021/07/31 01:40:30;;;;;;;5.53;3.53;;;21.00;99.90;;;;;;5056960;28;20909;-78
2021/07/31 01:42:56;;;;;;;9.20;3.63;;;20.90;99.90;;;;;;5039603;28;20438;-77
2021/07/31 01:45:26;;;;;;;3.20;2.90;;;21.00;99.90;;;;;;5056348;28;20228;-78
2021/07/31 01:47:52;;;;;;;4.20;3.80;;;21.00;99.90;;;;;;5056430;28;20418;-78
2021/07/31 01:50:18;;;;;;;3.93;3.07;;;21.00;99.90;;;;;;5056740;28;20484;-77
2021/07/31 01:52:44;;;;;;;3.23;2.93;;;21.00;99.90;;;;;;5055921;28;20438;-78
2021/07/31 01:55:10;;;;;;;4.70;3.43;;;21.00;99.90;;;;;;5038295;28;20489;-77
2021/07/31 01:57:36;;;;;;;5.20;3.70;;;21.00;99.90;;;;;;5055884;28;20410;-77
2021/07/31 02:00:03;;;;;;;4.67;3.40;;;21.00;99.90;;;;;;5055349;28;20414;-78
2021/07/31 02:02:31;;;;;;;5.53;3.60;;;21.00;99.90;;;;;;5053782;28;20205;-77
2021/07/31 02:04:57;;;;;;;4.00;3.10;;;21.00;99.90;;;;;;5055437;28;20419;-77
2021/07/31 02:07:23;;;;;;;4.50;3.27;;;21.00;99.90;;;;;;5055299;28;20778;-77
2021/07/31 02:09:49;;;;;;;3.73;3.07;;;21.00;99.90;;;;;;5023311;28;20181;-77
2021/07/31 02:12:14;;;;;;;3.20;2.90;;;21.00;99.90;;;;;;5055250;28;20176;-77
2021/07/31 02:14:40;;;;;;;5.80;3.53;;;21.00;99.90;;;;;;5055201;28;20474;-78
2021/07/31 02:17:06;;;;;;;4.50;2.87;;;21.00;99.90;;;;;;5038899;28;20187;-79
2021/07/31 02:19:31;;;;;;;5.27;3.63;;;21.10;99.90;;;;;;5055601;28;20176;-78
2021/07/31 02:22:01;;;;;;;3.23;2.70;;;21.00;99.90;;;;;;5056447;28;20280;-78
2021/07/31 02:24:27;;;;;;;4.33;3.13;;;20.80;99.90;;;;;;5056040;28;20191;-78
2021/07/31 02:26:52;;;;;;;6.50;4.03;;;20.70;99.90;;;;;;5055916;28;20441;-78
2021/07/31 02:29:18;;;;;;;4.13;3.33;;;20.60;99.90;;;;;;5057301;28;20183;-79
2021/07/31 02:31:43;;;;;;;4.70;3.60;;;20.60;99.90;;;;;;5058239;28;20539;-79
2021/07/31 02:34:09;;;;;;;4.87;3.80;;;20.60;99.90;;;;;;5055634;28;20272;-78
2021/07/31 02:36:35;;;;;;;3.13;2.83;;;20.50;99.90;;;;;;5056614;28;20215;-77
2021/07/31 02:39:00;;;;;;;6.60;3.33;;;20.50;99.90;;;;;;5055442;28;20176;-78
2021/07/31 02:41:26;;;;;;;3.87;3.13;;;20.50;99.90;;;;;;5056084;28;20165;-78
2021/07/31 02:43:51;;;;;;;7.10;5.10;;;20.50;99.90;;;;;;5056906;28;20193;-78
2021/07/31 02:46:17;;;;;;;6.90;4.90;;;20.50;99.90;;;;;;5056151;28;20173;-78
2021/07/31 02:48:42;;;;;;;4.67;3.37;;;20.60;99.90;;;;;;5039587;28;20185;-79
2021/07/31 02:51:13;;;;;;;4.27;3.03;;;20.70;99.90;;;;;;5023534;28;20189;-79
2021/07/31 02:53:38;;;;;;;5.00;4.07;;;20.80;99.90;;;;;;5057838;28;20771;-77
2021/07/31 02:56:05;;;;;;;4.73;3.50;;;20.80;99.90;;;;;;5052607;28;20559;-79
2021/07/31 02:58:31;;;;;;;3.43;3.13;;;20.90;99.90;;;;;;5054171;28;20529;-77
2021/07/31 03:01:01;;;;;;;5.80;2.40;;;21.00;99.90;;;;;;5055484;28;20429;-78
2021/07/31 03:03:26;;;;;;;3.57;2.73;;;21.00;99.90;;;;;;5056190;28;20194;-78
2021/07/31 03:05:59;;;;;;;3.70;3.07;;;21.00;99.90;;;;;;5054134;28;20747;-78
2021/07/31 03:08:28;;;;;;;2.43;2.23;;;21.00;99.90;;;;;;5055525;28;20204;-78
2021/07/31 03:10:55;;;;;;;3.10;2.50;;;21.00;99.90;;;;;;5055373;28;20437;-78
2021/07/31 03:13:23;;;;;;;3.40;2.40;;;20.90;99.90;;;;;;5053074;28;20518;-77
2021/07/31 03:15:51;;;;;;;2.87;2.50;;;20.90;99.90;;;;;;5054081;28;20460;-77
2021/07/31 03:18:17;;;;;;;3.83;2.43;;;21.00;99.90;;;;;;5053612;28;20430;-77
2021/07/31 03:20:50;;;;;;;2.37;1.90;;;20.90;99.90;;;;;;5054939;28;20416;-77
2021/07/31 03:23:18;;;;;;;3.60;2.80;;;20.90;99.90;;;;;;5052615;28;20440;-80
2021/07/31 03:25:44;;;;;;;4.20;2.53;;;20.90;99.90;;;;;;5054729;28;20417;-78
2021/07/31 03:28:10;;;;;;;2.50;2.30;;;20.80;99.90;;;;;;5054164;28;20930;-79
2021/07/31 03:30:40;;;;;;;2.77;2.10;;;20.80;99.90;;;;;;5052866;28;20180;-79
2021/07/31 03:33:06;;;;;;;4.10;2.83;;;20.80;99.90;;;;;;5053448;28;20773;-79
2021/07/31 03:35:31;;;;;;;2.50;2.30;;;20.70;99.90;;;;;;5053505;28;20575;-77
2021/07/31 03:37:57;;;;;;;5.00;3.37;;;20.80;99.90;;;;;;5052975;28;20516;-78
2021/07/31 03:40:22;;;;;;;3.73;3.03;;;20.70;99.90;;;;;;5051175;28;20679;-78
2021/07/31 03:42:48;;;;;;;3.27;2.50;;;20.70;99.90;;;;;;5052078;28;20201;-77
2021/07/31 03:45:13;;;;;;;3.50;2.77;;;20.70;99.90;;;;;;5052234;28;20182;-77
2021/07/31 03:47:39;;;;;;;4.23;2.70;;;20.70;99.90;;;;;;5052181;28;20202;-78
2021/07/31 03:50:05;;;;;;;3.60;2.40;;;20.70;99.90;;;;;;5034530;28;20205;-77
2021/07/31 03:52:30;;;;;;;3.70;2.30;;;20.60;99.90;;;;;;5051911;28;20202;-77
2021/07/31 03:54:56;;;;;;;3.33;2.00;;;20.50;99.90;;;;;;5051890;28;20513;-78
2021/07/31 03:57:21;;;;;;;2.33;2.00;;;20.50;99.90;;;;;;5050744;28;20168;-77
2021/07/31 03:59:47;;;;;;;2.60;2.13;;;20.50;99.90;;;;;;5051393;28;20552;-78
2021/07/31 04:02:13;;;;;;;3.30;2.30;;;20.50;99.90;;;;;;5050875;28;20273;-78
2021/07/31 04:04:38;;;;;;;5.00;2.40;;;20.50;99.90;;;;;;5052304;28;20228;-77
2021/07/31 04:07:04;;;;;;;2.00;1.60;;;20.50;99.90;;;;;;5051324;28;20434;-78
2021/07/31 04:09:29;;;;;;;4.60;2.07;;;20.40;99.90;;;;;;5052530;28;20179;-77
2021/07/31 04:11:58;;;;;;;4.03;2.23;;;20.40;99.90;;;;;;5034535;28;20177;-78
2021/07/31 04:14:24;;;;;;;2.70;2.00;;;20.40;99.90;;;;;;5052480;28;20274;-78
2021/07/31 04:16:49;;;;;;;1.70;1.50;;;20.40;99.90;;;;;;5052533;28;20405;-78
2021/07/31 04:19:15;;;;;;;1.70;1.60;;;20.40;99.90;;;;;;5051307;28;20178;-78
2021/07/31 04:21:40;;;;;;;2.00;1.57;;;20.30;99.90;;;;;;5050920;28;20587;-78
2021/07/31 04:24:06;;;;;;;3.53;2.10;;;20.30;99.90;;;;;;5057611;28;20212;-78
2021/07/31 04:26:31;;;;;;;1.63;1.53;;;20.30;99.90;;;;;;5066489;28;20203;-77
2021/07/31 04:28:57;;;;;;;2.73;2.07;;;20.30;99.90;;;;;;5052731;28;20184;-78
2021/07/31 04:31:23;;;;;;;3.00;1.80;;;20.30;99.90;;;;;;5052189;28;20200;-79
2021/07/31 04:33:52;;;;;;;5.53;2.13;;;20.30;99.90;;;;;;5054558;28;20193;-77
2021/07/31 04:36:18;;;;;;;2.73;2.37;;;20.40;99.90;;;;;;5050882;28;20446;-77
2021/07/31 04:38:43;;;;;;;5.23;2.37;;;20.50;99.90;;;;;;5052480;28;20411;-78
2021/07/31 04:41:09;;;;;;;2.83;1.77;;;20.50;99.90;;;;;;5051848;28;20177;-78
2021/07/31 04:43:34;;;;;;;3.33;1.87;;;20.40;99.90;;;;;;5051033;28;20196;-78
2021/07/31 04:46:01;;;;;;;2.00;1.50;;;20.40;99.90;;;;;;5052396;28;20170;-78
2021/07/31 04:48:27;;;;;;;5.40;2.03;;;20.30;99.90;;;;;;5052584;28;20205;-78
2021/07/31 04:51:00;;;;;;;1.70;1.30;;;20.40;99.90;;;;;;5033968;28;20408;-77
2021/07/31 04:53:27;;;;;;;4.50;2.10;;;20.40;99.90;;;;;;5052230;28;20197;-77
2021/07/31 04:55:54;;;;;;;2.80;1.40;;;20.30;99.90;;;;;;5052364;28;20487;-77
2021/07/31 04:58:20;;;;;;;2.17;1.97;;;20.30;99.90;;;;;;5053956;28;20438;-78
2021/07/31 05:00:46;;;;;;;2.03;1.47;;;20.30;99.90;;;;;;5051128;28;20396;-77
2021/07/31 05:03:13;;;;;;;4.30;1.93;;;20.30;99.90;;;;;;5051679;28;20435;-77
2021/07/31 05:05:38;;;;;;;1.87;1.50;;;20.30;99.90;;;;;;5052564;28;20505;-78
2021/07/31 05:08:07;;;;;;;2.50;1.83;;;20.40;99.90;;;;;;5052615;28;20453;-78
2021/07/31 05:10:32;;;;;;;1.80;1.47;;;20.40;99.90;;;;;;5053245;28;20177;-79
2021/07/31 05:13:01;;;;;;;2.77;2.00;;;20.40;99.90;;;;;;5055333;28;20455;-78
2021/07/31 05:15:26;;;;;;;4.37;2.23;;;20.50;99.90;;;;;;5055178;28;20200;-78
2021/07/31 05:17:52;;;;;;;5.30;1.93;;;20.50;99.90;;;;;;5055069;28;20411;-79
2021/07/31 05:20:20;;;;;;;2.47;1.67;;;20.60;99.90;;;;;;5057848;28;20178;-79
2021/07/31 05:22:46;;;;;;;2.80;2.23;;;20.50;99.90;;;;;;5057639;28;20307;-79
2021/07/31 05:25:11;;;;;;;1.97;1.50;;;20.50;99.90;;;;;;5056675;28;20457;-78
2021/07/31 05:27:37;;;;;;;4.03;1.70;;;20.70;99.90;;;;;;5055973;28;20178;-78
2021/07/31 05:30:04;;;;;;;3.40;1.70;;;20.70;99.90;;;;;;5055540;28;20217;-78
2021/07/31 05:32:30;;;;;;;1.63;1.30;;;20.70;99.90;;;;;;5056901;28;20316;-78
2021/07/31 05:34:58;;;;;;;2.00;1.50;;;20.80;99.90;;;;;;5057455;28;20466;-82
2021/07/31 05:37:24;;;;;;;2.03;1.17;;;20.90;99.90;;;;;;5056917;28;20633;-78
2021/07/31 05:39:49;;;;;;;2.23;1.63;;;21.10;99.90;;;;;;5057244;28;20414;-78
2021/07/31 05:42:15;;;;;;;2.27;1.07;;;21.40;99.90;;;;;;5057101;28;20173;-78
2021/07/31 05:44:40;;;;;;;1.80;1.43;;;21.50;99.90;;;;;;5059730;28;20179;-78
2021/07/31 05:47:06;;;;;;;1.50;1.03;;;21.70;99.90;;;;;;5056873;28;20181;-78
2021/07/31 05:49:31;;;;;;;1.73;1.53;;;21.90;99.90;;;;;;5056655;28;20184;-78
2021/07/31 05:51:57;;;;;;;1.10;1.00;;;22.20;99.90;;;;;;5037395;28;20196;-78
2021/07/31 05:54:22;;;;;;;4.23;1.20;;;22.10;99.90;;;;;;5055431;28;20209;-78
2021/07/31 05:56:49;;;;;;;1.53;1.30;;;22.30;99.90;;;;;;5056398;28;20516;-78
2021/07/31 05:59:16;;;;;;;1.40;1.10;;;22.40;99.90;;;;;;5056552;28;20230;-78
2021/07/31 06:01:41;;;;;;;1.30;0.90;;;22.70;99.90;;;;;;5055584;28;20779;-78
2021/07/31 06:04:07;;;;;;;2.67;1.57;;;22.80;99.90;;;;;;5055665;28;20435;-78
2021/07/31 06:06:33;;;;;;;2.60;1.00;;;22.80;99.90;;;;;;5053519;28;20181;-77
2021/07/31 06:08:59;;;;;;;1.27;0.90;;;22.80;99.90;;;;;;5053985;28;20183;-78
2021/07/31 06:11:25;;;;;;;2.40;1.57;;;22.80;99.90;;;;;;5054019;28;21475;-77
2021/07/31 06:13:50;;;;;;;1.60;1.03;;;23.10;99.90;;;;;;5055636;28;20455;-78
2021/07/31 06:16:16;;;;;;;4.90;1.63;;;23.00;99.90;;;;;;5055461;28;20204;-78
2021/07/31 06:18:41;;;;;;;1.27;1.00;;;23.00;99.90;;;;;;5054778;28;20172;-79
2021/07/31 06:21:15;;;;;;;1.80;1.10;;;23.00;99.90;;;;;;5054597;28;20177;-76
2021/07/31 06:23:40;;;;;;;1.77;1.03;;;23.00;99.90;;;;;;5053124;28;20242;-77
2021/07/31 06:26:07;;;;;;;1.93;1.30;;;23.10;99.90;;;;;;5054958;28;20420;-79
2021/07/31 06:28:33;;;;;;;1.43;0.90;;;23.30;99.90;;;;;;5053360;28;20188;-78
2021/07/31 06:30:58;;;;;;;1.37;1.00;;;23.10;99.90;;;;;;5052617;28;20423;-77
2021/07/31 06:33:24;;;;;;;1.60;1.00;;;23.00;99.90;;;;;;5053674;28;20204;-77
2021/07/31 06:35:50;;;;;;;1.00;0.90;;;23.20;99.90;;;;;;5053752;28;20215;-78
2021/07/31 06:38:15;;;;;;;1.20;0.87;;;23.70;99.90;;;;;;5054237;28;20172;-78
2021/07/31 06:40:42;;;;;;;1.23;0.97;;;23.60;99.90;;;;;;5054889;28;20180;-77
2021/07/31 06:43:08;;;;;;;3.23;0.90;;;23.60;99.90;;;;;;5052435;28;20204;-78
2021/07/31 06:45:33;;;;;;;1.37;1.13;;;23.50;99.90;;;;;;5053055;28;20423;-78
2021/07/31 06:48:02;;;;;;;1.53;1.00;;;23.60;99.90;;;;;;5053648;28;20640;-78
2021/07/31 06:50:27;;;;;;;1.23;0.90;;;23.60;99.90;;;;;;5036970;28;20188;-78
2021/07/31 06:52:53;;;;;;;1.53;1.07;;;23.70;99.90;;;;;;5052945;28;20451;-78
2021/07/31 06:55:18;;;;;;;2.33;1.07;;;23.60;99.90;;;;;;5054329;28;20208;-78
2021/07/31 06:57:44;;;;;;;1.10;0.97;;;23.40;99.90;;;;;;5053142;28;20180;-78
2021/07/31 07:00:10;;;;;;;1.10;0.90;;;23.70;99.90;;;;;;5054674;28;20259;-78
2021/07/31 07:02:36;;;;;;;1.93;1.33;;;24.20;99.90;;;;;;5054473;28;20212;-79
2021/07/31 07:05:02;;;;;;;1.47;0.97;;;24.10;99.90;;;;;;5054460;28;20510;-78
2021/07/31 07:07:27;;;;;;;1.77;1.00;;;23.80;99.90;;;;;;5054328;28;20172;-78
2021/07/31 07:09:53;;;;;;;4.53;1.10;;;23.70;99.90;;;;;;5054221;28;20419;-79
2021/07/31 07:12:18;;;;;;;7.83;1.40;;;23.70;99.10;;;;;;5052769;28;20189;-78
2021/07/31 07:14:44;;;;;;;4.60;1.23;;;23.50;99.50;;;;;;5055908;28;20200;-77
2021/07/31 07:17:10;;;;;;;1.30;0.70;;;23.90;99.90;;;;;;5021637;28;20176;-79
2021/07/31 07:19:35;;;;;;;2.37;1.00;;;23.70;99.30;;;;;;5053499;28;20644;-78
2021/07/31 07:22:01;;;;;;;1.20;1.00;;;23.70;98.80;;;;;;5051669;28;20515;-77
2021/07/31 07:24:26;;;;;;;1.50;1.17;;;23.80;99.10;;;;;;5054370;28;20203;-78
2021/07/31 07:26:52;;;;;;;1.63;1.10;;;23.80;98.30;;;;;;5053497;28;20181;-79
2021/07/31 07:29:17;;;;;;;1.60;1.40;;;23.80;98.50;;;;;;5052568;28;20187;-79
2021/07/31 07:31:43;;;;;;;4.27;1.30;;;23.70;98.20;;;;;;5054241;28;20245;-79
2021/07/31 07:34:08;;;;;;;1.63;1.00;;;23.50;97.90;;;;;;5054690;28;20237;-79
2021/07/31 07:36:34;;;;;;;2.40;0.90;;;23.50;98.40;;;;;;5053810;28;20176;-79
2021/07/31 07:39:00;;;;;;;3.47;1.20;;;23.80;98.50;;;;;;5054485;28;20168;-79
2021/07/31 07:41:25;;;;;;;1.30;1.00;;;23.80;98.10;;;;;;5052452;28;20256;-78
2021/07/31 07:43:51;;;;;;;1.20;1.00;;;24.10;98.20;;;;;;5052279;28;20656;-78
2021/07/31 07:46:17;;;;;;;1.37;0.90;;;23.60;96.90;;;;;;5053708;28;20184;-78
2021/07/31 07:48:44;;;;;;;1.37;1.00;;;23.60;97.00;;;;;;5053783;28;20189;-78
2021/07/31 07:51:10;;;;;;;1.30;1.17;;;23.70;97.40;;;;;;5053098;28;20411;-78
2021/07/31 07:53:37;;;;;;;1.27;1.00;;;23.60;96.30;;;;;;5052000;28;20797;-78
2021/07/31 07:56:03;;;;;;;4.00;1.30;;;23.40;95.10;;;;;;5053836;28;20266;-78
2021/07/31 07:58:29;;;;;;;1.20;1.03;;;23.20;95.40;;;;;;5052460;28;20419;-78
2021/07/31 08:00:57;;;;;;;2.77;1.27;;;23.40;95.80;;;;;;5035724;28;20427;-78
2021/07/31 08:03:23;;;;;;;1.80;1.30;;;23.50;94.80;;;;;;5052390;28;20197;-79
2021/07/31 08:05:48;;;;;;;2.80;1.00;;;23.50;94.30;;;;;;5036110;28;20425;-79
2021/07/31 08:08:14;;;;;;;1.10;0.80;;;23.40;94.70;;;;;;5052543;28;20661;-79
2021/07/31 08:10:40;;;;;;;1.27;0.90;;;23.30;95.60;;;;;;5053372;28;20172;-78
2021/07/31 08:13:05;;;;;;;2.13;0.80;;;23.20;94.80;;;;;;5053118;28;20608;-78
2021/07/31 08:15:31;;;;;;;2.10;1.40;;;23.30;94.60;;;;;;5052211;28;20533;-78
2021/07/31 08:17:57;;;;;;;1.40;1.10;;;23.60;94.40;;;;;;5052508;28;20175;-78
2021/07/31 08:20:23;;;;;;;3.80;1.33;;;23.80;93.90;;;;;;5052016;28;20263;-77
2021/07/31 08:22:48;;;;;;;1.47;0.77;;;23.90;93.50;;;;;;5053269;28;20976;-79
2021/07/31 08:25:14;;;;;;;1.13;0.90;;;23.90;92.60;;;;;;5053817;28;20188;-78
2021/07/31 08:27:40;;;;;;;1.70;1.10;;;23.80;92.60;;;;;;5053696;28;20173;-78
2021/07/31 08:30:09;;;;;;;1.10;0.73;;;23.80;92.00;;;;;;5054200;28;20528;-79
2021/07/31 08:32:35;;;;;;;1.80;1.30;;;23.90;91.80;;;;;;5053635;28;20435;-79
2021/07/31 08:35:00;;;;;;;1.00;0.70;;;24.10;91.90;;;;;;5038098;28;20505;-79
2021/07/31 08:37:27;;;;;;;1.30;0.87;;;23.90;91.60;;;;;;5056024;28;20177;-79
2021/07/31 08:39:53;;;;;;;1.17;0.80;;;23.60;91.50;;;;;;5053173;28;20272;-78
2021/07/31 08:42:18;;;;;;;2.50;0.90;;;23.40;91.70;;;;;;5052124;28;20469;-78
2021/07/31 08:44:44;;;;;;;0.90;0.70;;;23.10;91.90;;;;;;5053368;28;20187;-79
2021/07/31 08:47:10;;;;;;;1.33;0.97;;;23.10;91.80;;;;;;5055621;28;20176;-79
2021/07/31 08:49:43;;;;;;;1.57;1.10;;;23.10;92.40;;;;;;5058752;28;20168;-79
2021/07/31 08:52:08;;;;;;;1.50;1.40;;;23.30;92.50;;;;;;5057066;28;20411;-78
2021/07/31 08:54:39;;;;;;;1.30;1.10;;;23.30;92.70;;;;;;5057688;28;20454;-77
2021/07/31 08:57:07;;;;;;;1.60;1.10;;;23.40;92.10;;;;;;5054935;28;20185;-78
2021/07/31 08:59:33;;;;;;;1.10;0.90;;;23.30;92.10;;;;;;5056897;28;20415;-78
2021/07/31 09:01:59;;;;;;;2.07;1.00;;;23.30;92.50;;;;;;5057619;28;20971;-80
2021/07/31 09:04:26;;;;;;;1.90;0.80;;;23.40;92.60;;;;;;5056948;28;20795;-79
2021/07/31 09:06:51;;;;;;;1.90;1.10;;;23.40;92.70;;;;;;5056413;28;20461;-78
2021/07/31 09:09:27;;;;;;;1.47;1.30;;;23.30;92.90;;;;;;5055487;28;20419;-77
2021/07/31 09:12:05;;;;;;;1.00;0.80;;;23.40;92.90;;;;;;5057288;28;20310;-79
2021/07/31 09:14:32;;;;;;;1.30;1.20;;;23.40;93.00;;;;;;5055116;28;20547;-79
2021/07/31 09:16:58;;;;;;;5.10;1.23;;;23.60;93.40;;;;;;5056573;28;20414;-79
2021/07/31 09:19:28;;;;;;;1.50;1.30;;;23.80;93.20;;;;;;5056461;28;20891;-78
2021/07/31 09:22:07;;;;;;;3.50;0.90;;;23.90;92.40;;;;;;5055977;28;20422;-79
2021/07/31 09:24:34;;;;;;;1.20;0.93;;;24.20;92.50;;;;;;5055835;28;20423;-79
2021/07/31 09:27:00;;;;;;;1.73;1.00;;;24.30;91.00;;;;;;5055656;28;20431;-78
2021/07/31 09:29:36;;;;;;;1.20;0.90;;;24.10;90.50;;;;;;5056287;28;20426;-78
2021/07/31 09:32:04;;;;;;;1.90;1.03;;;24.10;90.40;;;;;;5057503;28;20566;-78
2021/07/31 09:34:37;;;;;;;1.20;0.90;;;24.00;90.30;;;;;;5057586;28;20462;-78
2021/07/31 09:37:17;;;;;;;1.00;0.90;;;23.80;90.10;;;;;;5038075;28;20427;-78
2021/07/31 09:40:04;;;;;;;2.33;1.10;;;23.60;89.70;;;;;;5055892;28;20521;-78
2021/07/31 09:42:38;;;;;;;1.37;0.90;;;23.50;90.00;;;;;;5056076;28;20556;-77
2021/07/31 09:45:14;;;;;;;1.33;0.83;;;23.60;90.20;;;;;;5055525;28;20414;-77
2021/07/31 09:48:03;;;;;;;1.27;0.97;;;23.60;89.80;;;;;;5054877;28;20418;-77
2021/07/31 09:50:41;;;;;;;4.23;1.03;;;23.80;89.60;;;;;;5037208;28;20427;-77
2021/07/31 09:53:15;;;;;;;1.40;1.03;;;23.80;88.60;;;;;;5053707;28;20461;-78
2021/07/31 09:55:55;;;;;;;1.97;1.00;;;23.90;90.00;;;;;;5056153;28;20462;-77
2021/07/31 09:58:21;;;;;;;1.00;0.80;;;24.10;88.20;;;;;;5054060;28;20443;-78
2021/07/31 10:00:53;;;;;;;7.67;0.90;;;24.30;87.50;;;;;;5056039;28;20777;-78
2021/07/31 10:03:19;;;;;;;2.13;1.07;;;24.10;86.50;;;;;;5055940;28;20435;-78
2021/07/31 10:05:45;;;;;;;1.97;1.33;;;23.80;86.20;;;;;;5055756;28;20426;-78
2021/07/31 10:08:11;;;;;;;1.80;1.10;;;23.80;85.10;;;;;;5055678;28;20416;-78
2021/07/31 10:10:38;;;;;;;2.50;0.90;;;24.10;85.30;;;;;;5055761;28;20165;-78
2021/07/31 10:13:04;;;;;;;1.50;1.20;;;24.30;84.10;;;;;;5055318;28;20465;-78
2021/07/31 10:15:30;;;;;;;2.90;1.10;;;24.40;83.80;;;;;;5055874;28;20454;-78
2021/07/31 10:17:57;;;;;;;5.23;1.10;;;24.60;84.90;;;;;;5021583;28;20929;-78
2021/07/31 10:20:30;;;;;;;2.53;0.90;;;24.60;85.20;;;;;;5055621;28;20940;-80
2021/07/31 10:22:56;;;;;;;2.17;0.80;;;24.60;81.70;;;;;;5054038;28;20518;-79
2021/07/31 10:25:23;;;;;;;2.17;1.07;;;24.50;83.40;;;;;;5055536;28;20450;-77
2021/07/31 10:27:50;;;;;;;1.30;0.87;;;24.70;84.00;;;;;;5053812;28;20500;-78
2021/07/31 10:30:38;;;;;;;1.47;0.70;;;24.80;83.40;;;;;;5054215;28;20415;-78
2021/07/31 10:33:06;;;;;;;1.60;0.97;;;24.30;81.40;;;;;;5054647;28;20772;-79
2021/07/31 10:35:37;;;;;;;1.87;1.00;;;24.00;83.50;;;;;;5054926;28;20454;-79
2021/07/31 10:38:05;;;;;;;1.20;0.83;;;23.90;84.80;;;;;;5055057;28;20391;-78
2021/07/31 10:40:34;;;;;;;1.33;1.00;;;24.20;85.20;;;;;;5053561;28;20890;-78
2021/07/31 10:43:00;;;;;;;1.60;1.00;;;24.40;83.60;;;;;;5053520;28;20486;-78
2021/07/31 10:45:29;;;;;;;2.13;0.83;;;24.50;82.30;;;;;;5054321;28;20430;-77
2021/07/31 10:47:56;;;;;;;4.07;1.00;;;24.10;82.20;;;;;;5036184;28;20590;-77
2021/07/31 10:50:24;;;;;;;1.40;0.90;;;24.00;83.10;;;;;;5054349;28;20423;-78
2021/07/31 10:52:54;;;;;;;1.23;1.00;;;23.90;83.40;;;;;;5052973;28;20794;-78
2021/07/31 10:55:43;;;;;;;1.33;0.87;;;23.80;83.40;;;;;;5036978;28;20513;-78
2021/07/31 10:58:19;;;;;;;2.47;1.03;;;23.70;84.40;;;;;;5050892;28;20423;-78
2021/07/31 11:00:45;;;;;;;1.27;1.03;;;23.70;85.50;;;;;;5053361;28;20938;-78
2021/07/31 11:03:28;;;;;;;2.90;1.20;;;23.60;86.00;;;;;;5054144;28;20419;-78
2021/07/31 11:06:05;;;;;;;1.93;1.03;;;23.60;84.90;;;;;;5054525;28;20407;-78
2021/07/31 11:08:33;;;;;;;8.73;1.17;;;23.50;85.20;;;;;;5054514;28;20929;-78
2021/07/31 11:11:01;;;;;;;5.37;1.20;;;23.30;84.40;;;;;;5053769;28;20411;-79
2021/07/31 11:13:29;;;;;;;1.60;1.00;;;23.30;85.60;;;;;;5053706;28;20447;-78
2021/07/31 11:16:04;;;;;;;1.17;0.90;;;23.30;86.40;;;;;;5052895;28;20824;-78
2021/07/31 11:18:39;;;;;;;1.67;1.03;;;23.70;86.60;;;;;;5054240;28;20473;-78
2021/07/31 11:21:12;;;;;;;2.20;1.00;;;24.00;87.70;;;;;;5054469;28;20425;-77
2021/07/31 11:23:41;;;;;;;1.77;0.90;;;24.20;87.10;;;;;;5054227;28;20430;-78
2021/07/31 11:26:07;;;;;;;2.67;1.30;;;24.30;83.90;;;;;;5052932;28;20585;-78
2021/07/31 11:28:33;;;;;;;1.03;0.80;;;24.30;83.40;;;;;;5052529;28;20506;-78
2021/07/31 11:30:59;;;;;;;1.70;1.00;;;24.10;82.50;;;;;;5054116;28;20410;-78
2021/07/31 11:33:28;;;;;;;2.93;0.90;;;24.10;82.80;;;;;;5052068;28;20435;-78
2021/07/31 11:35:57;;;;;;;1.27;0.93;;;23.90;83.30;;;;;;5052802;28;20623;-79
2021/07/31 11:38:25;;;;;;;3.80;1.23;;;24.20;84.50;;;;;;5053751;28;20407;-78
2021/07/31 11:40:58;;;;;;;0.93;0.70;;;24.00;83.10;;;;;;5053837;28;20403;-78
2021/07/31 11:43:24;;;;;;;3.37;1.00;;;23.70;84.30;;;;;;5053325;28;20443;-78
2021/07/31 11:45:49;;;;;;;1.20;1.10;;;23.60;85.10;;;;;;5053871;28;20423;-78
2021/07/31 11:48:15;;;;;;;1.07;0.73;;;23.60;83.70;;;;;;5052094;28;20204;-78
2021/07/31 11:51:03;;;;;;;5.80;0.97;;;23.50;84.40;;;;;;5053653;28;20195;-78
2021/07/31 11:53:29;;;;;;;1.97;1.10;;;23.60;84.90;;;;;;5052073;28;20206;-78
2021/07/31 11:56:23;;;;;;;1.93;0.90;;;23.60;83.50;;;;;;5051968;28;20463;-78
2021/07/31 11:58:59;;;;;;;1.33;0.90;;;23.60;84.30;;;;;;5053676;28;20195;-78
2021/07/31 12:01:25;;;;;;;2.30;0.67;;;23.50;84.80;;;;;;5052311;28;20522;-78
2021/07/31 12:03:53;;;;;;;2.17;1.20;;;23.40;84.60;;;;;;5052223;28;20848;-78
2021/07/31 12:06:43;;;;;;;1.73;1.00;;;23.40;85.50;;;;;;5053423;28;20176;-79
2021/07/31 12:09:20;;;;;;;1.40;0.73;;;23.60;85.00;;;;;;5053501;28;20418;-78
2021/07/31 12:11:47;;;;;;;1.00;0.70;;;23.90;84.40;;;;;;5053585;28;20811;-78
2021/07/31 12:14:40;;;;;;;1.10;0.90;;;24.10;84.30;;;;;;5053848;28;20810;-78
2021/07/31 12:17:23;;;;;;;1.30;0.70;;;23.90;82.00;;;;;;5053859;28;20817;-78
2021/07/31 12:19:54;;;;;;;2.10;0.80;;;23.80;81.10;;;;;;5035133;28;20508;-79
2021/07/31 12:22:28;;;;;;;1.40;1.10;;;23.90;81.50;;;;;;5055621;28;20411;-79
2021/07/31 12:25:09;;;;;;;1.70;1.00;;;24.30;81.60;;;;;;5058973;28;20414;-79
2021/07/31 12:28:01;;;;;;;1.20;0.87;;;24.40;81.30;;;;;;5057737;28;20422;-78
2021/07/31 12:30:31;;;;;;;1.10;0.90;;;24.40;80.60;;;;;;5056233;28;20415;-78
2021/07/31 12:33:17;;;;;;;1.10;0.60;;;24.30;80.60;;;;;;5055715;28;20439;-78
2021/07/31 12:35:48;;;;;;;1.10;0.70;;;24.10;78.40;;;;;;5056976;28;20502;-78
2021/07/31 12:38:18;;;;;;;1.10;0.73;;;24.20;78.80;;;;;;5056266;28;20411;-78
2021/07/31 12:40:45;;;;;;;2.83;0.93;;;24.10;78.40;;;;;;5057354;28;20417;-79
2021/07/31 12:43:13;;;;;;;1.70;1.00;;;24.00;76.30;;;;;;5038936;28;20518;-78
2021/07/31 12:45:40;;;;;;;1.33;1.00;;;24.00;75.70;;;;;;5056825;28;20779;-79
2021/07/31 12:48:06;;;;;;;1.77;1.10;;;24.20;76.20;;;;;;5057385;28;20407;-78
2021/07/31 12:50:32;;;;;;;1.30;0.90;;;24.30;76.70;;;;;;5057490;28;20429;-79